sensor_id;sensor_type;location;lat;lon;timestamp;pressure;altitude;pressure_sealevel;temperature;humidity
75418;BME280;63997;52.112;5.420;2022-11-20T00:00:15;101579.47;;;-3.75;83.82
75418;BME280;63997;52.112;5.420;2022-11-20T00:02:41;101564.06;;;-3.77;83.56
75418;BME280;63997;52.112;5.420;2022-11-20T00:05:08;101568.84;;;-3.74;83.59
75418;BME280;63997;52.112;5.420;2022-11-20T00:07:34;101558.69;;;-3.82;83.36
75418;BME280;63997;52.112;5.420;2022-11-20T00:10:01;101563.88;;;-3.82;83.55
75418;BME280;63997;52.112;5.420;2022-11-20T00:12:27;101565.69;;;-3.82;83.51
75418;BME280;63997;52.112;5.420;2022-11-20T00:14:54;101553.91;;;-3.85;83.25
75418;BME280;63997;52.112;5.420;2022-11-20T00:17:20;101552.50;;;-3.87;83.37
75418;BME280;63997;52.112;5.420;2022-11-20T00:19:46;101550.50;;;-3.85;83.54
75418;BME280;63997;52.112;5.420;2022-11-20T00:22:13;101557.31;;;-3.84;84.00
75418;BME280;63997;52.112;5.420;2022-11-20T00:24:40;101547.72;;;-3.90;83.67
75418;BME280;63997;52.112;5.420;2022-11-20T00:27:08;101548.56;;;-3.96;83.26
75418;BME280;63997;52.112;5.420;2022-11-20T00:29:34;101546.53;;;-3.94;84.21
75418;BME280;63997;52.112;5.420;2022-11-20T00:32:01;101554.53;;;-3.89;84.13
75418;BME280;63997;52.112;5.420;2022-11-20T00:34:27;101552.50;;;-3.87;84.35
75418;BME280;63997;52.112;5.420;2022-11-20T00:36:53;101548.31;;;-3.88;83.82
75418;BME280;63997;52.112;5.420;2022-11-20T00:39:20;101546.31;;;-3.93;83.56
75418;BME280;63997;52.112;5.420;2022-11-20T00:41:46;101554.94;;;-3.92;83.84
75418;BME280;63997;52.112;5.420;2022-11-20T00:44:13;101552.34;;;-3.92;83.73
75418;BME280;63997;52.112;5.420;2022-11-20T00:46:39;101547.94;;;-3.99;83.80
75418;BME280;63997;52.112;5.420;2022-11-20T00:49:05;101554.75;;;-4.04;83.64
75418;BME280;63997;52.112;5.420;2022-11-20T00:51:32;101545.19;;;-4.04;83.93
75418;BME280;63997;52.112;5.420;2022-11-20T00:53:58;101554.16;;;-4.00;84.62
75418;BME280;63997;52.112;5.420;2022-11-20T00:56:26;101540.16;;;-3.99;84.46
75418;BME280;63997;52.112;5.420;2022-11-20T00:58:52;101531.56;;;-3.92;84.40
75418;BME280;63997;52.112;5.420;2022-11-20T01:01:24;101532.16;;;-3.90;84.29
75418;BME280;63997;52.112;5.420;2022-11-20T01:03:53;101526.56;;;-3.94;84.22
75418;BME280;63997;52.112;5.420;2022-11-20T01:06:22;101536.56;;;-3.97;84.27
75418;BME280;63997;52.112;5.420;2022-11-20T01:08:50;101536.19;;;-4.01;84.34
75418;BME280;63997;52.112;5.420;2022-11-20T01:11:19;101537.78;;;-4.07;84.02
75418;BME280;63997;52.112;5.420;2022-11-20T01:13:48;101535.44;;;-4.15;83.95
75418;BME280;63997;52.112;5.420;2022-11-20T01:16:17;101530.84;;;-4.19;84.03
75418;BME280;63997;52.112;5.420;2022-11-20T01:18:46;101532.44;;;-4.18;83.93
75418;BME280;63997;52.112;5.420;2022-11-20T01:21:21;101529.22;;;-4.14;84.67
75418;BME280;63997;52.112;5.420;2022-11-20T01:23:49;101515.63;;;-4.16;83.80
75418;BME280;63997;52.112;5.420;2022-11-20T01:26:19;101523.06;;;-4.19;84.03
75418;BME280;63997;52.112;5.420;2022-11-20T01:28:45;101527.84;;;-4.23;84.01
75418;BME280;63997;52.112;5.420;2022-11-20T01:31:26;101519.84;;;-4.21;84.26
75418;BME280;63997;52.112;5.420;2022-11-20T01:33:55;101517.06;;;-4.20;84.27
75418;BME280;63997;52.112;5.420;2022-11-20T01:36:23;101517.84;;;-4.19;84.37
75418;BME280;63997;52.112;5.420;2022-11-20T01:38:59;101517.06;;;-4.20;84.20
75418;BME280;63997;52.112;5.420;2022-11-20T01:41:28;101525.84;;;-4.21;83.88
75418;BME280;63997;52.112;5.420;2022-11-20T01:44:16;101515.06;;;-4.24;83.95
75418;BME280;63997;52.112;5.420;2022-11-20T01:47:04;101517.88;;;-4.26;83.82
75418;BME280;63997;52.112;5.420;2022-11-20T01:49:38;101518.06;;;-4.28;83.33
75418;BME280;63997;52.112;5.420;2022-11-20T01:52:20;101517.06;;;-4.33;83.69
75418;BME280;63997;52.112;5.420;2022-11-20T01:54:52;101516.31;;;-4.40;83.62
75418;BME280;63997;52.112;5.420;2022-11-20T01:57:19;101513.09;;;-4.49;83.68
75418;BME280;63997;52.112;5.420;2022-11-20T02:00:00;101515.94;;;-4.57;83.53
75418;BME280;63997;52.112;5.420;2022-11-20T02:02:27;101510.97;;;-4.65;83.62
75418;BME280;63997;52.112;5.420;2022-11-20T02:04:56;101512.34;;;-4.69;83.61
75418;BME280;63997;52.112;5.420;2022-11-20T02:07:26;101515.53;;;-4.74;83.47
75418;BME280;63997;52.112;5.420;2022-11-20T02:09:52;101519.34;;;-4.76;83.57
75418;BME280;63997;52.112;5.420;2022-11-20T02:12:24;101508.94;;;-4.83;83.53
75418;BME280;63997;52.112;5.420;2022-11-20T02:15:09;101507.56;;;-4.86;83.47
75418;BME280;63997;52.112;5.420;2022-11-20T02:17:35;101513.16;;;-4.82;84.00
75418;BME280;63997;52.112;5.420;2022-11-20T02:20:02;101510.75;;;-4.77;84.00
75418;BME280;63997;52.112;5.420;2022-11-20T02:22:32;101509.34;;;-4.73;84.51
75418;BME280;63997;52.112;5.420;2022-11-20T02:25:03;101514.16;;;-4.70;84.22
75418;BME280;63997;52.112;5.420;2022-11-20T02:27:31;101503.34;;;-4.67;84.05
75418;BME280;63997;52.112;5.420;2022-11-20T02:30:04;101503.34;;;-4.67;84.32
75418;BME280;63997;52.112;5.420;2022-11-20T02:32:34;101502.34;;;-4.66;83.92
75418;BME280;63997;52.112;5.420;2022-11-20T02:37:48;101493.16;;;-4.62;83.84
75418;BME280;63997;52.112;5.420;2022-11-20T02:40:14;101486.97;;;-4.61;83.64
75418;BME280;63997;52.112;5.420;2022-11-20T02:42:41;101482.78;;;-4.62;83.73
75418;BME280;63997;52.112;5.420;2022-11-20T02:45:08;101485.19;;;-4.60;83.88
75418;BME280;63997;52.112;5.420;2022-11-20T02:47:34;101487.97;;;-4.62;84.12
75418;BME280;63997;52.112;5.420;2022-11-20T02:50:00;101488.59;;;-4.60;83.77
75418;BME280;63997;52.112;5.420;2022-11-20T02:52:27;101486.81;;;-4.59;84.26
75418;BME280;63997;52.112;5.420;2022-11-20T02:54:54;101484.78;;;-4.57;84.13
75418;BME280;63997;52.112;5.420;2022-11-20T02:57:20;101476.22;;;-4.58;83.68
75418;BME280;63997;52.112;5.420;2022-11-20T02:59:47;101475.00;;;-4.62;83.67
75418;BME280;63997;52.112;5.420;2022-11-20T03:02:13;101474.03;;;-4.74;83.51
75418;BME280;63997;52.112;5.420;2022-11-20T03:04:39;101483.00;;;-4.83;83.19
75418;BME280;63997;52.112;5.420;2022-11-20T03:07:07;101476.44;;;-4.92;83.52
75418;BME280;63997;52.112;5.420;2022-11-20T03:09:34;101469.47;;;-4.92;83.73
75418;BME280;63997;52.112;5.420;2022-11-20T03:12:00;101474.25;;;-4.89;83.91
75418;BME280;63997;52.112;5.420;2022-11-20T03:14:26;101457.69;;;-4.88;83.81
75418;BME280;63997;52.112;5.420;2022-11-20T03:16:52;101463.69;;;-4.87;83.72
75418;BME280;63997;52.112;5.420;2022-11-20T03:19:19;101467.25;;;-4.88;83.53
75418;BME280;63997;52.112;5.420;2022-11-20T03:21:46;101464.88;;;-4.96;83.23
75418;BME280;63997;52.112;5.420;2022-11-20T03:24:13;101459.69;;;-5.03;83.53
75418;BME280;63997;52.112;5.420;2022-11-20T03:26:40;101465.69;;;-5.09;83.50
75418;BME280;63997;52.112;5.420;2022-11-20T03:29:06;101460.88;;;-5.06;83.65
75418;BME280;63997;52.112;5.420;2022-11-20T03:31:36;101462.50;;;-5.04;83.47
75418;BME280;63997;52.112;5.420;2022-11-20T03:34:04;101459.28;;;-5.13;83.47
75418;BME280;63997;52.112;5.420;2022-11-20T03:36:30;101457.91;;;-5.16;83.54
75418;BME280;63997;52.112;5.420;2022-11-20T03:38:57;101456.91;;;-5.15;83.57
75418;BME280;63997;52.112;5.420;2022-11-20T03:41:28;101457.91;;;-5.16;83.88
75418;BME280;63997;52.112;5.420;2022-11-20T03:44:00;101449.94;;;-5.14;83.81
75418;BME280;63997;52.112;5.420;2022-11-20T03:46:28;101441.94;;;-5.13;83.78
75418;BME280;63997;52.112;5.420;2022-11-20T03:48:55;101431.78;;;-5.08;84.02
75418;BME280;63997;52.112;5.420;2022-11-20T03:51:26;101432.97;;;-5.03;84.03
75418;BME280;63997;52.112;5.420;2022-11-20T03:53:54;101449.13;;;-5.01;84.02
75418;BME280;63997;52.112;5.420;2022-11-20T03:56:27;101444.94;;;-5.02;84.23
75418;BME280;63997;52.112;5.420;2022-11-20T03:58:54;101438.34;;;-5.05;83.97
75418;BME280;63997;52.112;5.420;2022-11-20T04:01:22;101443.53;;;-5.05;83.70
75418;BME280;63997;52.112;5.420;2022-11-20T04:03:49;101445.13;;;-5.04;83.69
75418;BME280;63997;52.112;5.420;2022-11-20T04:06:21;101429.75;;;-5.06;83.68
75418;BME280;63997;52.112;5.420;2022-11-20T04:08:48;101428.59;;;-5.10;83.53
75418;BME280;63997;52.112;5.420;2022-11-20T04:11:24;101433.75;;;-5.16;83.45
75418;BME280;63997;52.112;5.420;2022-11-20T04:13:56;101426.59;;;-5.21;83.50
75418;BME280;63997;52.112;5.420;2022-11-20T04:16:24;101429.38;;;-5.22;83.87
75418;BME280;63997;52.112;5.420;2022-11-20T04:18:55;101425.78;;;-5.28;83.49
75418;BME280;63997;52.112;5.420;2022-11-20T04:21:22;101432.75;;;-5.35;83.50
75418;BME280;63997;52.112;5.420;2022-11-20T04:23:49;101418.59;;;-5.39;83.96
75418;BME280;63997;52.112;5.420;2022-11-20T04:26:16;101423.00;;;-5.40;84.08
75418;BME280;63997;52.112;5.420;2022-11-20T04:28:42;101425.00;;;-5.42;83.57
75418;BME280;63997;52.112;5.420;2022-11-20T04:31:15;101432.97;;;-5.50;83.46
75418;BME280;63997;52.112;5.420;2022-11-20T04:33:44;101435.94;;;-5.53;83.59
75418;BME280;63997;52.112;5.420;2022-11-20T04:36:13;101436.16;;;-5.54;83.62
75418;BME280;63997;52.112;5.420;2022-11-20T04:38:40;101425.38;;;-5.58;83.84
75418;BME280;63997;52.112;5.420;2022-11-20T04:41:08;101415.59;;;-5.56;84.01
75418;BME280;63997;52.112;5.420;2022-11-20T04:43:35;101419.19;;;-5.50;84.10
75418;BME280;63997;52.112;5.420;2022-11-20T04:46:02;101409.25;;;-5.53;83.90
75418;BME280;63997;52.112;5.420;2022-11-20T04:48:29;101404.06;;;-5.53;84.29
75418;BME280;63997;52.112;5.420;2022-11-20T04:50:56;101415.00;;;-5.51;84.58
75418;BME280;63997;52.112;5.420;2022-11-20T04:53:22;101409.81;;;-5.51;84.32
75418;BME280;63997;52.112;5.420;2022-11-20T04:55:49;101406.66;;;-5.47;84.30
75418;BME280;63997;52.112;5.420;2022-11-20T04:58:16;101404.47;;;-5.43;84.10
75418;BME280;63997;52.112;5.420;2022-11-20T05:00:42;101396.69;;;-5.43;84.20
75418;BME280;63997;52.112;5.420;2022-11-20T05:03:08;101403.47;;;-5.42;83.84
75418;BME280;63997;52.112;5.420;2022-11-20T05:05:35;101410.03;;;-5.40;83.81
75418;BME280;63997;52.112;5.420;2022-11-20T05:08:01;101409.66;;;-5.37;83.83
75418;BME280;63997;52.112;5.420;2022-11-20T05:10:28;101399.88;;;-5.41;83.57
75418;BME280;63997;52.112;5.420;2022-11-20T05:12:54;101405.47;;;-5.44;83.53
75418;BME280;63997;52.112;5.420;2022-11-20T05:15:20;101400.28;;;-5.44;83.14
75418;BME280;63997;52.112;5.420;2022-11-20T05:17:48;101396.69;;;-5.50;83.14
75418;BME280;63997;52.112;5.420;2022-11-20T05:20:15;101394.69;;;-5.54;83.16
75418;BME280;63997;52.112;5.420;2022-11-20T05:22:42;101392.47;;;-5.64;82.79
75418;BME280;63997;52.112;5.420;2022-11-20T05:25:09;101384.72;;;-5.64;83.28
75418;BME280;63997;52.112;5.420;2022-11-20T05:27:36;101379.13;;;-5.68;83.36
75418;BME280;63997;52.112;5.420;2022-11-20T05:30:06;101379.91;;;-5.67;84.13
75418;BME280;63997;52.112;5.420;2022-11-20T05:32:33;101375.94;;;-5.63;84.22
75418;BME280;63997;52.112;5.420;2022-11-20T05:34:59;101372.75;;;-5.59;84.37
75418;BME280;63997;52.112;5.420;2022-11-20T05:37:25;101361.59;;;-5.66;83.97
75418;BME280;63997;52.112;5.420;2022-11-20T05:39:52;101358.00;;;-5.71;83.85
75418;BME280;63997;52.112;5.420;2022-11-20T05:42:18;101363.19;;;-5.78;83.78
75418;BME280;63997;52.112;5.420;2022-11-20T05:45:00;101355.00;;;-5.81;83.72
75418;BME280;63997;52.112;5.420;2022-11-20T05:47:32;101364.56;;;-5.82;84.03
75418;BME280;63997;52.112;5.420;2022-11-20T05:49:59;101377.13;;;-5.79;84.14
75418;BME280;63997;52.112;5.420;2022-11-20T05:52:28;101385.09;;;-5.74;83.97
75418;BME280;63997;52.112;5.420;2022-11-20T05:54:55;101388.47;;;-5.73;83.86
75418;BME280;63997;52.112;5.420;2022-11-20T05:57:21;101396.25;;;-5.80;83.27
75418;BME280;63997;52.112;5.420;2022-11-20T05:59:48;101394.25;;;-5.85;83.44
75418;BME280;63997;52.112;5.420;2022-11-20T06:02:14;101383.72;;;-5.83;83.68
75418;BME280;63997;52.112;5.420;2022-11-20T06:04:41;101397.03;;;-5.86;83.62
75418;BME280;63997;52.112;5.420;2022-11-20T06:07:07;101400.41;;;-5.86;83.78
75418;BME280;63997;52.112;5.420;2022-11-20T06:09:33;101400.63;;;-5.87;83.46
75418;BME280;63997;52.112;5.420;2022-11-20T06:12:00;101405.00;;;-5.88;83.56
75418;BME280;63997;52.112;5.420;2022-11-20T06:14:26;101404.22;;;-5.88;83.13
75418;BME280;63997;52.112;5.420;2022-11-20T06:16:53;101407.38;;;-5.86;83.61
75418;BME280;63997;52.112;5.420;2022-11-20T06:19:19;101409.59;;;-5.83;83.92
75418;BME280;63997;52.112;5.420;2022-11-20T06:21:48;101400.84;;;-5.82;83.33
75418;BME280;63997;52.112;5.420;2022-11-20T06:24:15;101407.59;;;-5.81;83.47
75418;BME280;63997;52.112;5.420;2022-11-20T06:26:41;101407.38;;;-5.86;82.96
75418;BME280;63997;52.112;5.420;2022-11-20T06:29:08;101407.63;;;-5.94;82.95
75418;BME280;63997;52.112;5.420;2022-11-20T06:31:34;101408.22;;;-5.92;83.43
75418;BME280;63997;52.112;5.420;2022-11-20T06:34:05;101412.97;;;-5.96;83.37
75418;BME280;63997;52.112;5.420;2022-11-20T06:36:32;101400.63;;;-5.94;83.59
75418;BME280;63997;52.112;5.420;2022-11-20T06:38:59;101404.81;;;-5.93;83.52
75418;BME280;63997;52.112;5.420;2022-11-20T06:41:26;101398.63;;;-5.98;83.62
75418;BME280;63997;52.112;5.420;2022-11-20T06:43:53;101401.81;;;-5.96;83.43
75418;BME280;63997;52.112;5.420;2022-11-20T06:46:20;101415.16;;;-5.99;83.33
75418;BME280;63997;52.112;5.420;2022-11-20T06:48:48;101409.59;;;-5.96;83.58
75418;BME280;63997;52.112;5.420;2022-11-20T06:51:15;101411.34;;;-5.90;83.81
75418;BME280;63997;52.112;5.420;2022-11-20T06:53:41;101405.03;;;-5.94;83.47
75418;BME280;63997;52.112;5.420;2022-11-20T06:56:08;101405.63;;;-5.92;83.70
75418;BME280;63997;52.112;5.420;2022-11-20T06:58:35;101402.22;;;-5.86;84.12
75418;BME280;63997;52.112;5.420;2022-11-20T07:01:08;101393.28;;;-5.83;84.04
75418;BME280;63997;52.112;5.420;2022-11-20T07:03:35;101385.09;;;-5.87;83.96
75418;BME280;63997;52.112;5.420;2022-11-20T07:06:02;101386.50;;;-5.91;83.40
75418;BME280;63997;52.112;5.420;2022-11-20T07:08:29;101382.69;;;-5.95;83.62
75418;BME280;63997;52.112;5.420;2022-11-20T07:11:00;101381.06;;;-5.90;83.55
75418;BME280;63997;52.112;5.420;2022-11-20T07:13:28;101388.66;;;-5.88;83.97
75418;BME280;63997;52.112;5.420;2022-11-20T07:15:55;101381.91;;;-5.82;84.11
75418;BME280;63997;52.112;5.420;2022-11-20T07:18:21;101373.94;;;-5.81;84.12
75418;BME280;63997;52.112;5.420;2022-11-20T07:20:47;101374.94;;;-5.75;84.21
75418;BME280;63997;52.112;5.420;2022-11-20T07:23:14;101393.88;;;-5.75;83.72
75418;BME280;63997;52.112;5.420;2022-11-20T07:25:40;101387.09;;;-5.76;83.73
75418;BME280;63997;52.112;5.420;2022-11-20T07:28:07;101383.13;;;-5.72;84.24
75418;BME280;63997;52.112;5.420;2022-11-20T07:30:33;101382.72;;;-5.69;84.06
75418;BME280;63997;52.112;5.420;2022-11-20T07:32:59;101372.97;;;-5.67;83.83
75418;BME280;63997;52.112;5.420;2022-11-20T07:35:26;101373.16;;;-5.62;84.10
75418;BME280;63997;52.112;5.420;2022-11-20T07:37:52;101370.75;;;-5.56;84.41
75418;BME280;63997;52.112;5.420;2022-11-20T07:40:19;101366.56;;;-5.51;84.35
75418;BME280;63997;52.112;5.420;2022-11-20T07:42:54;101365.19;;;-5.40;84.53
75418;BME280;63997;52.112;5.420;2022-11-20T07:45:22;101371.97;;;-5.33;84.58
75418;BME280;63997;52.112;5.420;2022-11-20T07:47:49;101372.34;;;-5.22;84.63
75418;BME280;63997;52.112;5.420;2022-11-20T07:50:16;101375.94;;;-5.17;84.35
75418;BME280;63997;52.112;5.420;2022-11-20T07:52:43;101378.72;;;-5.12;84.49
75418;BME280;63997;52.112;5.420;2022-11-20T07:55:10;101382.69;;;-5.02;84.29
75418;BME280;63997;52.112;5.420;2022-11-20T07:57:37;101379.88;;;-4.94;84.31
75418;BME280;63997;52.112;5.420;2022-11-20T08:00:05;101378.28;;;-4.89;84.09
75418;BME280;63997;52.112;5.420;2022-11-20T08:02:33;101376.88;;;-4.85;83.65
75418;BME280;63997;52.112;5.420;2022-11-20T08:04:59;101382.25;;;-4.80;83.70
75418;BME280;63997;52.112;5.420;2022-11-20T08:07:25;101379.03;;;-4.68;83.92
75418;BME280;63997;52.112;5.420;2022-11-20T08:09:52;101373.81;;;-4.62;84.17
75418;BME280;63997;52.112;5.420;2022-11-20T08:12:20;101364.59;;;-4.51;84.13
75418;BME280;63997;52.112;5.420;2022-11-20T08:15:06;101356.38;;;-4.41;84.26
75418;BME280;63997;52.112;5.420;2022-11-20T08:17:38;101349.34;;;-4.34;84.15
75418;BME280;63997;52.112;5.420;2022-11-20T08:20:05;101357.69;;;-4.26;84.28
75418;BME280;63997;52.112;5.420;2022-11-20T08:22:31;101361.19;;;-4.07;84.72
75418;BME280;63997;52.112;5.420;2022-11-20T08:24:57;101353.13;;;-3.67;84.77
75418;BME280;63997;52.112;5.420;2022-11-20T08:27:24;101354.03;;;-3.55;84.36
75418;BME280;63997;52.112;5.420;2022-11-20T08:29:50;101345.22;;;-3.54;84.18
75418;BME280;63997;52.112;5.420;2022-11-20T08:32:16;101348.41;;;-3.52;84.34
75418;BME280;63997;52.112;5.420;2022-11-20T08:34:43;101348.34;;;-3.45;84.68
75418;BME280;63997;52.112;5.420;2022-11-20T08:37:09;101357.09;;;-3.39;84.76
75418;BME280;63997;52.112;5.420;2022-11-20T08:39:35;101355.69;;;-3.35;84.60
75418;BME280;63997;52.112;5.420;2022-11-20T08:42:02;101354.81;;;-3.29;84.86
75418;BME280;63997;52.112;5.420;2022-11-20T08:44:28;101352.94;;;-3.22;85.02
75418;BME280;63997;52.112;5.420;2022-11-20T08:46:55;101351.06;;;-3.15;85.32
75418;BME280;63997;52.112;5.420;2022-11-20T08:49:21;101354.41;;;-3.08;85.32
75418;BME280;63997;52.112;5.420;2022-11-20T08:51:48;101359.56;;;-3.01;85.49
75418;BME280;63997;52.112;5.420;2022-11-20T08:54:17;101357.28;;;-2.98;85.88
75418;BME280;63997;52.112;5.420;2022-11-20T08:56:45;101348.66;;;-2.91;85.71
75418;BME280;63997;52.112;5.420;2022-11-20T08:59:12;101340.97;;;-2.86;85.93
75418;BME280;63997;52.112;5.420;2022-11-20T09:01:58;101341.91;;;-2.81;86.03
75418;BME280;63997;52.112;5.420;2022-11-20T09:04:24;101338.09;;;-2.78;86.14
75418;BME280;63997;52.112;5.420;2022-11-20T09:06:51;101340.25;;;-2.75;86.41
75418;BME280;63997;52.112;5.420;2022-11-20T09:09:18;101347.19;;;-2.69;86.42
75418;BME280;63997;52.112;5.420;2022-11-20T09:11:45;101339.09;;;-2.61;86.27
75418;BME280;63997;52.112;5.420;2022-11-20T09:14:11;101334.59;;;-2.54;86.71
75418;BME280;63997;52.112;5.420;2022-11-20T09:16:38;101337.31;;;-2.49;86.68
75418;BME280;63997;52.112;5.420;2022-11-20T09:19:04;101333.28;;;-2.45;86.66
75418;BME280;63997;52.112;5.420;2022-11-20T09:21:51;101329.22;;;-2.41;86.77
75418;BME280;63997;52.112;5.420;2022-11-20T09:24:24;101321.31;;;-2.34;86.74
75418;BME280;63997;52.112;5.420;2022-11-20T09:26:50;101313.41;;;-2.27;86.95
75418;BME280;63997;52.112;5.420;2022-11-20T09:29:17;101301.66;;;-2.18;86.85
75418;BME280;63997;52.112;5.420;2022-11-20T09:31:44;101300.31;;;-2.09;87.00
75418;BME280;63997;52.112;5.420;2022-11-20T09:34:10;101292.19;;;-2.01;86.71
75418;BME280;63997;52.112;5.420;2022-11-20T09:36:37;101287.09;;;-1.96;86.84
75418;BME280;63997;52.112;5.420;2022-11-20T09:39:03;101296.16;;;-1.87;86.92
75418;BME280;63997;52.112;5.420;2022-11-20T09:41:53;101296.97;;;-1.74;86.97
75418;BME280;63997;52.112;5.420;2022-11-20T09:53:06;101279.97;;;-1.42;87.11
75418;BME280;63997;52.112;5.420;2022-11-20T09:55:36;101285.41;;;-1.31;87.03
75418;BME280;63997;52.112;5.420;2022-11-20T09:58:06;101281.44;;;-1.22;87.17
75418;BME280;63997;52.112;5.420;2022-11-20T10:00:35;101284.72;;;-1.15;86.78
75418;BME280;63997;52.112;5.420;2022-11-20T10:03:12;101281.19;;;-1.09;86.93
75418;BME280;63997;52.112;5.420;2022-11-20T10:05:48;101270.06;;;-1.04;86.79
75418;BME280;63997;52.112;5.420;2022-11-20T10:08:25;101269.47;;;-0.95;86.80
75418;BME280;63997;52.112;5.420;2022-11-20T10:11:18;101260.72;;;-0.89;86.77
75418;BME280;63997;52.112;5.420;2022-11-20T10:13:52;101255.59;;;-0.84;86.49
75418;BME280;63997;52.112;5.420;2022-11-20T10:19:26;101250.31;;;-0.72;86.28
75418;BME280;63997;52.112;5.420;2022-11-20T10:25:03;101241.59;;;-0.49;86.43
75418;BME280;63997;52.112;5.420;2022-11-20T10:27:35;101234.38;;;-0.42;86.17
75418;BME280;63997;52.112;5.420;2022-11-20T10:30:13;101223.78;;;-0.35;86.17
75418;BME280;63997;52.112;5.420;2022-11-20T10:32:42;101227.25;;;-0.30;85.93
75418;BME280;63997;52.112;5.420;2022-11-20T10:35:20;101222.69;;;-0.22;85.97
75418;BME280;63997;52.112;5.420;2022-11-20T10:38:03;101212.00;;;-0.21;85.77
75418;BME280;63997;52.112;5.420;2022-11-20T10:40:35;101200.25;;;-0.18;85.78
75418;BME280;63997;52.112;5.420;2022-11-20T10:43:21;101197.66;;;-0.18;85.98
75418;BME280;63997;52.112;5.420;2022-11-20T10:45:57;101204.84;;;-0.09;85.96
75418;BME280;63997;52.112;5.420;2022-11-20T10:48:26;101207.78;;;-0.05;86.18
75418;BME280;63997;52.112;5.420;2022-11-20T10:51:12;101195.34;;;0.02;86.04
75418;BME280;63997;52.112;5.420;2022-11-20T10:53:47;101178.63;;;0.03;86.35
75418;BME280;63997;52.112;5.420;2022-11-20T10:56:24;101177.19;;;0.12;86.54
75418;BME280;63997;52.112;5.420;2022-11-20T10:59:00;101163.94;;;0.19;86.51
75418;BME280;63997;52.112;5.420;2022-11-20T11:01:29;101162.19;;;0.24;86.46
75418;BME280;63997;52.112;5.420;2022-11-20T11:03:56;101171.69;;;0.31;86.61
75418;BME280;63997;52.112;5.420;2022-11-20T11:06:39;101165.47;;;0.37;86.67
75418;BME280;63997;52.112;5.420;2022-11-20T11:09:15;101152.41;;;0.37;86.38
75418;BME280;63997;52.112;5.420;2022-11-20T11:11:43;101147.75;;;0.44;86.55
75418;BME280;63997;52.112;5.420;2022-11-20T11:14:14;101148.88;;;0.48;86.82
75418;BME280;63997;52.112;5.420;2022-11-20T11:16:57;101151.59;;;0.58;86.72
75418;BME280;63997;52.112;5.420;2022-11-20T11:19:24;101143.50;;;0.60;86.74
75418;BME280;63997;52.112;5.420;2022-11-20T11:21:55;101133.56;;;0.62;86.91
75418;BME280;63997;52.112;5.420;2022-11-20T11:24:27;101129.69;;;0.64;87.15
75418;BME280;63997;52.112;5.420;2022-11-20T11:27:14;101116.34;;;0.66;87.10
75418;BME280;63997;52.112;5.420;2022-11-20T11:29:44;101121.09;;;0.69;87.23
75418;BME280;63997;52.112;5.420;2022-11-20T11:32:13;101104.09;;;0.71;87.55
75418;BME280;63997;52.112;5.420;2022-11-20T11:34:40;101108.88;;;0.74;87.63
75418;BME280;63997;52.112;5.420;2022-11-20T11:37:17;101097.88;;;0.77;87.70
75418;BME280;63997;52.112;5.420;2022-11-20T11:39:46;101091.38;;;0.80;87.85
75418;BME280;63997;52.112;5.420;2022-11-20T11:42:29;101081.19;;;0.84;88.11
75418;BME280;63997;52.112;5.420;2022-11-20T11:44:58;101082.78;;;0.85;88.03
75418;BME280;63997;52.112;5.420;2022-11-20T11:52:56;101071.38;;;0.96;88.51
75418;BME280;63997;52.112;5.420;2022-11-20T11:55:29;101062.53;;;1.02;88.48
75418;BME280;63997;52.112;5.420;2022-11-20T11:58:06;101070.13;;;1.03;88.58
75418;BME280;63997;52.112;5.420;2022-11-20T12:00:39;101074.06;;;1.06;88.88
75418;BME280;63997;52.112;5.420;2022-11-20T12:03:17;101059.44;;;1.10;88.86
75418;BME280;63997;52.112;5.420;2022-11-20T12:05:55;101058.69;;;1.15;89.01
75418;BME280;63997;52.112;5.420;2022-11-20T12:08:41;101051.13;;;1.18;89.22
75418;BME280;63997;52.112;5.420;2022-11-20T12:11:28;101036.25;;;1.24;89.28
75418;BME280;63997;52.112;5.420;2022-11-20T12:14:11;101045.16;;;1.28;89.43
75418;BME280;63997;52.112;5.420;2022-11-20T12:16:40;101039.41;;;1.31;89.42
75418;BME280;63997;52.112;5.420;2022-11-20T12:19:11;101030.03;;;1.35;89.41
75418;BME280;63997;52.112;5.420;2022-11-20T12:41:37;101015.38;;;1.44;89.57
75418;BME280;63997;52.112;5.420;2022-11-20T12:50:28;100991.03;;;1.44;89.91
75418;BME280;63997;52.112;5.420;2022-11-20T12:53:34;100965.59;;;1.44;89.82
75418;BME280;63997;52.112;5.420;2022-11-20T12:59:28;100958.28;;;1.51;90.49
75418;BME280;63997;52.112;5.420;2022-11-20T13:07:56;100935.31;;;1.64;90.63
75418;BME280;63997;52.112;5.420;2022-11-20T13:10:35;100932.94;;;1.67;90.64
75418;BME280;63997;52.112;5.420;2022-11-20T13:18:14;100923.25;;;1.73;90.80
75418;BME280;63997;52.112;5.420;2022-11-20T13:20:43;100919.59;;;1.74;90.91
75418;BME280;63997;52.112;5.420;2022-11-20T13:23:10;100905.69;;;1.73;90.83
75418;BME280;63997;52.112;5.420;2022-11-20T13:25:40;100907.03;;;1.76;90.99
75418;BME280;63997;52.112;5.420;2022-11-20T13:30:51;100896.78;;;1.79;91.15
75418;BME280;63997;52.112;5.420;2022-11-20T13:33:33;100892.88;;;1.82;91.16
75418;BME280;63997;52.112;5.420;2022-11-20T13:36:06;100901.25;;;1.84;91.08
75418;BME280;63997;52.112;5.420;2022-11-20T13:38:46;100899.69;;;1.83;91.14
75418;BME280;63997;52.112;5.420;2022-11-20T13:41:30;100893.66;;;1.82;91.17
75418;BME280;63997;52.112;5.420;2022-11-20T13:44:14;100888.44;;;1.82;91.06
75418;BME280;63997;52.112;5.420;2022-11-20T13:46:44;100879.78;;;1.82;91.06
75418;BME280;63997;52.112;5.420;2022-11-20T13:49:32;100870.06;;;1.82;91.05
75418;BME280;63997;52.112;5.420;2022-11-20T13:52:26;100873.47;;;1.83;91.19
75418;BME280;63997;52.112;5.420;2022-11-20T13:55:07;100861.41;;;1.82;91.01
75418;BME280;63997;52.112;5.420;2022-11-20T14:00:19;100869.03;;;1.83;91.04
75418;BME280;63997;52.112;5.420;2022-11-20T14:03:14;100877.44;;;1.85;91.22
75418;BME280;63997;52.112;5.420;2022-11-20T14:05:51;100875.84;;;1.84;91.23
75418;BME280;63997;52.112;5.420;2022-11-20T14:08:58;100877.66;;;1.84;91.09
75418;BME280;63997;52.112;5.420;2022-11-20T14:11:18;100862.19;;;1.82;91.20
75418;BME280;63997;52.112;5.420;2022-11-20T14:14:13;100843.06;;;1.82;91.28
75418;BME280;63997;52.112;5.420;2022-11-20T14:16:41;100840.72;;;1.80;91.34